Terminal Aerodrome Forecast
Issued by NWS Flagstaff, AZ

Home | Current Version | Previous Version | Text Only | Print | Product List | Glossary On
Versions: 1 2 3 4 5 6 7 8 9 10 11 12 13 14 15 16
000
FTUS45 KFGZ 042326
TAFINW
TAF
KINW 042326Z 0500/0524 19010KT P6SM SCT050 BKN090
      TEMPO 0500/0504 VRB15G30KT -TSRA BKN050CB
     FM050400 24008KT P6SM SCT060 BKN100 PROB30 0510/0516 SHRA
      OVC050
     FM051800 26009KT P6SM SCT050 BKN090=

USA.gov is the U.S. government's official web portal to all federal, state and local government web resources and services.